Chestnut Hill, Connecticut
Current Conditions -  °F | °C
As of 2:52 PM on Wednesday 28 Jan 2015 (Local Time) from KIJD Reporting Station
Clear Clear  
Wind Chill: 13°   Ceiling: Unl
Heat Index: 25°   Visibility: 9mi
Dew Point:   Wind: 14mph
Humidity: 49%   Direction: 330°NNW
Pressure: 30.02"   Gusts: 23mph
Location:  41.7073°N, 72.2065°W
Report Text: KIJD 281952Z AUTO 33012G20KT 9SM CLR M04/M13 A3002 RMK AO2 SLP171 T10391133
Loading
Personal Weather Stations






























Interactive Weather Map New forecast layout! Learn more

10-Day Weather Forecast

Advertisements
Track Severe Weather on mobile